Terminal Aerodrome Forecast
Issued by NWS Melbourne, FL

Home | Current Version | Previous Version | Text Only | Print | Product List | Glossary On
Versions: 1 2 3 4 5 6 7 8 9 10 11 12 13 14 15
306
FTUS42 KMLB 240535
TAFDAB
TAF
KDAB 240535Z 2406/2506 34007KT P6SM FEW025
     FM240900 35007KT P6SM FEW008 SCT015
      TEMPO 2409/2413 6SM BR BKN008
     FM241300 02007KT P6SM FEW008 SCT025
     FM241500 04011KT P6SM SCT025=

USA.gov is the U.S. government's official web portal to all federal, state and local government web resources and services.